NORTHEAST SUFFOLK  -  Special Weather Statement Special Weather Statement        NORTHERN NASSAU  -  Special Weather Statement Special Weather Statement        NORTHWEST SUFFOLK  -  Special Weather Statement Special Weather Statement        SOUTHEAST SUFFOLK  -  Special Weather Statement Special Weather Statement        SOUTHERN NASSAU  -  Special Weather Statement Special Weather Statement        SOUTHWEST SUFFOLK  -  Special Weather Statement Special Weather Statement      

Active alerts

Northern Nassau
  Details for Northern Nassau Special Weather Statement
Southern Nassau
  Details for Southern Nassau Special Weather Statement
Northwest Suffolk
  Details for Northwest Suffolk Special Weather Statement
Southwest Suffolk
  Details for Southwest Suffolk Special Weather Statement
Northeast Suffolk
  Details for Northeast Suffolk Special Weather Statement
Southeast Suffolk
  Details for Southeast Suffolk Special Weather Statement


WXM80 ListenWXM80 Stop

You find our weather info also at:

UK Metoffice

WeatherCloud

Weather Underground

Northeastern Weather Network

AWEKAS

Citizen Weather Observer Program (CWOP)

HAMweather, WeatherForYou, PWS Weather


Weather Underground History page Text

Daily Summary for August 27, 2017 Units:  Both    English   Metric
« Previous Day
Next Day »
Daily Weekly Monthly Yearly Custom
  High: Low: Average:
Temperature: 79.0 °F /  26.1 °C 57.5 °F /  14.2 °C 67.3 °F /  19.6 °C
Dew Point: 63.9 °F /  17.7 °C 52.8 °F /  11.6 °C 57 °F /  13.9 °C
Humidity: 91 % 42 % 71 %
Wind Speed: 5.1 mph /  8.2 km/h - 1 mph /  1.6 km/h
Wind Gust: 9.2 mph /  14.8 km/h - -
Wind:- - East
Pressure: 30.24 in /  1023.9 hPa 30.16 in /  1021.2 hPa -
Precipitation: 0.00 in /  0 mm    
Historical Graphs
 
 
Tabular Data for August 27, 2017
Time Temperature Dew Point Pressure Wind Wind Speed Wind Gust Humidity Rainfall Rate (Hourly)
00:00 59.5 °F /  15.3 °C 55.0 °F /  12.8 °C 30.21 in /  1022.9 hPa Calm     85 % 0.00 in /  0 mm
00:05 59.4 °F /  15.2 °C 54.9 °F /  12.7 °C 30.21 in /  1022.9 hPa Calm     85 % 0.00 in /  0 mm
00:10 59.3 °F /  15.2 °C 54.8 °F /  12.7 °C 30.21 in /  1022.9 hPa West 0.1 mph /  0.2 km/h 1.2 mph /  1.9 km/h 85 % 0.00 in /  0 mm
00:15 59.3 °F /  15.2 °C 55.1 °F /  12.8 °C 30.21 in /  1022.9 hPa Calm     86 % 0.00 in /  0 mm
00:20 59.2 °F /  15.1 °C 55.0 °F /  12.8 °C 30.21 in /  1022.9 hPa Calm     86 % 0.00 in /  0 mm
00:25 59.2 °F /  15.1 °C 55.0 °F /  12.8 °C 30.21 in /  1022.9 hPa West 0.7 mph /  1.1 km/h 1.2 mph /  1.9 km/h 86 % 0.00 in /  0 mm
00:30 59.1 °F /  15.1 °C 55.2 °F /  12.9 °C 30.21 in /  1022.9 hPa Calm   1.2 mph /  1.9 km/h 87 % 0.00 in /  0 mm
00:35 59.1 °F /  15.1 °C 55.2 °F /  12.9 °C 30.21 in /  1022.9 hPa Calm     87 % 0.00 in /  0 mm
00:40 59.1 °F /  15.1 °C 55.2 °F /  12.9 °C 30.21 in /  1022.9 hPa Calm     87 % 0.00 in /  0 mm
00:45 59.1 °F /  15.1 °C 55.5 °F /  13.1 °C 30.21 in /  1022.9 hPa West 0.3 mph /  0.5 km/h 1.2 mph /  1.9 km/h 88 % 0.00 in /  0 mm
00:50 59.1 °F /  15.1 °C 55.5 °F /  13.1 °C 30.21 in /  1022.9 hPa Calm     88 % 0.00 in /  0 mm
00:52 59.1 °F /  15.1 °C 55.5 °F /  13.1 °C 30.21 in /  1022.9 hPa Calm     88 % 0.00 in /  0 mm
00:57 59.1 °F /  15.1 °C 55.5 °F /  13.1 °C 30.21 in /  1022.9 hPa Calm     88 % 0.00 in /  0 mm
01:02 59.1 °F /  15.1 °C 55.5 °F /  13.1 °C 30.21 in /  1022.9 hPa Calm     88 % 0.00 in /  0 mm
01:07 59.2 °F /  15.1 °C 55.6 °F /  13.1 °C 30.21 in /  1022.9 hPa Calm     88 % 0.00 in /  0 mm
01:12 59.2 °F /  15.1 °C 55.6 °F /  13.1 °C 30.21 in /  1022.9 hPa Calm     88 % 0.00 in /  0 mm
01:17 59.2 °F /  15.1 °C 56.0 °F /  13.3 °C 30.21 in /  1022.9 hPa Calm     89 % 0.00 in /  0 mm
01:22 59.2 °F /  15.1 °C 56.0 °F /  13.3 °C 30.20 in /  1022.6 hPa Calm   1.2 mph /  1.9 km/h 89 % 0.00 in /  0 mm
01:27 59.2 °F /  15.1 °C 56.0 °F /  13.3 °C 30.20 in /  1022.6 hPa West 0.2 mph /  0.3 km/h 1.0 mph /  1.6 km/h 89 % 0.00 in /  0 mm
01:32 59.2 °F /  15.1 °C 55.6 °F /  13.1 °C 30.20 in /  1022.6 hPa West 0.5 mph /  0.8 km/h 2.3 mph /  3.7 km/h 88 % 0.00 in /  0 mm
01:37 59.1 °F /  15.1 °C 55.5 °F /  13.1 °C 30.20 in /  1022.6 hPa West 0.6 mph /  1 km/h 1.2 mph /  1.9 km/h 88 % 0.00 in /  0 mm
01:42 59.1 °F /  15.1 °C 55.2 °F /  12.9 °C 30.20 in /  1022.6 hPa West 0.6 mph /  1 km/h 2.3 mph /  3.7 km/h 87 % 0.00 in /  0 mm
01:47 59.1 °F /  15.1 °C 55.2 °F /  12.9 °C 30.20 in /  1022.6 hPa Calm     87 % 0.00 in /  0 mm
01:52 59.1 °F /  15.1 °C 55.2 °F /  12.9 °C 30.20 in /  1022.6 hPa Calm     87 % 0.00 in /  0 mm
01:57 59.1 °F /  15.1 °C 54.9 °F /  12.7 °C 30.20 in /  1022.6 hPa West 0.4 mph /  0.6 km/h 1.2 mph /  1.9 km/h 86 % 0.00 in /  0 mm
02:02 59.1 °F /  15.1 °C 54.9 °F /  12.7 °C 30.20 in /  1022.6 hPa West 0.6 mph /  1 km/h 2.3 mph /  3.7 km/h 86 % 0.00 in /  0 mm
02:07 59.1 °F /  15.1 °C 54.9 °F /  12.7 °C 30.20 in /  1022.6 hPa West 0.4 mph /  0.6 km/h 1.2 mph /  1.9 km/h 86 % 0.00 in /  0 mm
02:12 59.1 °F /  15.1 °C 54.9 °F /  12.7 °C 30.20 in /  1022.6 hPa West 0.2 mph /  0.3 km/h 1.2 mph /  1.9 km/h 86 % 0.00 in /  0 mm
02:17 59.0 °F /  15 °C 54.8 °F /  12.7 °C 30.20 in /  1022.6 hPa Calm     86 % 0.00 in /  0 mm
02:22 58.9 °F /  14.9 °C 54.7 °F /  12.6 °C 30.20 in /  1022.6 hPa West 0.1 mph /  0.2 km/h 1.2 mph /  1.9 km/h 86 % 0.00 in /  0 mm
02:27 58.8 °F /  14.9 °C 54.6 °F /  12.6 °C 30.20 in /  1022.6 hPa West 0.1 mph /  0.2 km/h 1.2 mph /  1.9 km/h 86 % 0.00 in /  0 mm
02:32 58.7 °F /  14.8 °C 54.5 °F /  12.5 °C 30.20 in /  1022.6 hPa Calm     86 % 0.00 in /  0 mm
02:38 58.6 °F /  14.8 °C 54.4 °F /  12.4 °C 30.20 in /  1022.6 hPa Calm     86 % 0.00 in /  0 mm
02:43 58.6 °F /  14.8 °C 54.4 °F /  12.4 °C 30.20 in /  1022.6 hPa West 0.1 mph /  0.2 km/h 1.2 mph /  1.9 km/h 86 % 0.00 in /  0 mm
02:48 58.4 °F /  14.7 °C 54.2 °F /  12.3 °C 30.20 in /  1022.6 hPa West 0.1 mph /  0.2 km/h 1.2 mph /  1.9 km/h 86 % 0.00 in /  0 mm
02:53 58.3 °F /  14.6 °C 54.1 °F /  12.3 °C 30.20 in /  1022.6 hPa Calm   1.2 mph /  1.9 km/h 86 % 0.00 in /  0 mm
02:58 58.3 °F /  14.6 °C 54.4 °F /  12.4 °C 30.20 in /  1022.6 hPa Calm     87 % 0.00 in /  0 mm
03:03 58.2 °F /  14.6 °C 54.3 °F /  12.4 °C 30.20 in /  1022.6 hPa West 0.1 mph /  0.2 km/h 1.0 mph /  1.6 km/h 87 % 0.00 in /  0 mm
03:08 58.1 °F /  14.5 °C 54.2 °F /  12.3 °C 30.20 in /  1022.6 hPa West 1.4 mph /  2.3 km/h 2.3 mph /  3.7 km/h 87 % 0.00 in /  0 mm
03:13 58.0 °F /  14.4 °C 54.2 °F /  12.3 °C 30.20 in /  1022.6 hPa Calm   1.2 mph /  1.9 km/h 87 % 0.00 in /  0 mm
03:18 57.9 °F /  14.4 °C 54.1 °F /  12.3 °C 30.20 in /  1022.6 hPa West 0.1 mph /  0.2 km/h 1.0 mph /  1.6 km/h 87 % 0.00 in /  0 mm
03:23 57.8 °F /  14.3 °C 54.3 °F /  12.4 °C 30.20 in /  1022.6 hPa Calm     88 % 0.00 in /  0 mm
03:28 57.7 °F /  14.3 °C 54.2 °F /  12.3 °C 30.20 in /  1022.6 hPa Calm     88 % 0.00 in /  0 mm
03:33 57.7 °F /  14.3 °C 54.2 °F /  12.3 °C 30.20 in /  1022.6 hPa Calm     88 % 0.00 in /  0 mm
03:38 57.6 °F /  14.2 °C 54.1 °F /  12.3 °C 30.20 in /  1022.6 hPa Calm     88 % 0.00 in /  0 mm
03:43 57.6 °F /  14.2 °C 54.1 °F /  12.3 °C 30.20 in /  1022.6 hPa Calm     88 % 0.00 in /  0 mm
03:48 57.6 °F /  14.2 °C 54.4 °F /  12.4 °C 30.21 in /  1022.9 hPa Calm     89 % 0.00 in /  0 mm
03:53 57.5 °F /  14.2 °C 54.0 °F /  12.2 °C 30.21 in /  1022.9 hPa Calm   1.2 mph /  1.9 km/h 88 % 0.00 in /  0 mm
03:59 57.5 °F /  14.2 °C 54.3 °F /  12.4 °C 30.20 in /  1022.6 hPa West 0.1 mph /  0.2 km/h   89 % 0.00 in /  0 mm
04:04 57.5 °F /  14.2 °C 54.3 °F /  12.4 °C 30.20 in /  1022.6 hPa West 0.2 mph /  0.3 km/h 2.3 mph /  3.7 km/h 89 % 0.00 in /  0 mm
04:09 57.5 °F /  14.2 °C 54.6 °F /  12.6 °C 30.20 in /  1022.6 hPa North 2.0 mph /  3.2 km/h 3.0 mph /  4.8 km/h 90 % 0.00 in /  0 mm
04:14 57.5 °F /  14.2 °C 54.9 °F /  12.7 °C 30.20 in /  1022.6 hPa Calm   2.3 mph /  3.7 km/h 91 % 0.00 in /  0 mm
04:19 57.6 °F /  14.2 °C 55.0 °F /  12.8 °C 30.20 in /  1022.6 hPa Calm     91 % 0.00 in /  0 mm
04:20 57.6 °F /  14.2 °C 54.7 °F /  12.6 °C 30.20 in /  1022.6 hPa Calm     90 % 0.00 in /  0 mm
04:25 57.6 °F /  14.2 °C 55.0 °F /  12.8 °C 30.20 in /  1022.6 hPa North 0.9 mph /  1.4 km/h 3.5 mph /  5.6 km/h 91 % 0.00 in /  0 mm
04:30 57.7 °F /  14.3 °C 55.1 °F /  12.8 °C 30.20 in /  1022.6 hPa NNE 1.8 mph /  2.9 km/h 3.5 mph /  5.6 km/h 91 % 0.00 in /  0 mm
04:35 57.8 °F /  14.3 °C 55.2 °F /  12.9 °C 30.20 in /  1022.6 hPa NNE 0.7 mph /  1.1 km/h 3.5 mph /  5.6 km/h 91 % 0.00 in /  0 mm
04:40 57.9 °F /  14.4 °C 55.3 °F /  12.9 °C 30.20 in /  1022.6 hPa NE 1.4 mph /  2.3 km/h 3.5 mph /  5.6 km/h 91 % 0.00 in /  0 mm
04:45 58.0 °F /  14.4 °C 55.4 °F /  13 °C 30.20 in /  1022.6 hPa NNE 0.7 mph /  1.1 km/h 2.3 mph /  3.7 km/h 91 % 0.00 in /  0 mm
04:50 58.1 °F /  14.5 °C 55.2 °F /  12.9 °C 30.20 in /  1022.6 hPa NNE 2.3 mph /  3.7 km/h 4.0 mph /  6.4 km/h 90 % 0.00 in /  0 mm
04:55 58.3 °F /  14.6 °C 55.4 °F /  13 °C 30.20 in /  1022.6 hPa NNE 2.6 mph /  4.2 km/h 5.0 mph /  8 km/h 90 % 0.00 in /  0 mm
05:00 58.5 °F /  14.7 °C 55.6 °F /  13.1 °C 30.20 in /  1022.6 hPa North 3.6 mph /  5.8 km/h 4.6 mph /  7.4 km/h 90 % 0.00 in /  0 mm
05:05 58.6 °F /  14.8 °C 55.7 °F /  13.2 °C 30.20 in /  1022.6 hPa Calm   2.3 mph /  3.7 km/h 90 % 0.00 in /  0 mm
05:10 58.8 °F /  14.9 °C 55.9 °F /  13.3 °C 30.20 in /  1022.6 hPa NE 1.0 mph /  1.6 km/h 2.3 mph /  3.7 km/h 90 % 0.00 in /  0 mm
05:11 58.8 °F /  14.9 °C 55.9 °F /  13.3 °C 30.20 in /  1022.6 hPa NE 0.4 mph /  0.6 km/h 2.3 mph /  3.7 km/h 90 % 0.00 in /  0 mm
05:16 59.0 °F /  15 °C 55.8 °F /  13.2 °C 30.20 in /  1022.6 hPa NE 1.0 mph /  1.6 km/h 3.0 mph /  4.8 km/h 89 % 0.00 in /  0 mm
05:21 59.1 °F /  15.1 °C 55.9 °F /  13.3 °C 30.21 in /  1022.9 hPa Calm     89 % 0.00 in /  0 mm
05:26 59.2 °F /  15.1 °C 55.6 °F /  13.1 °C 30.20 in /  1022.6 hPa Calm     88 % 0.00 in /  0 mm
05:31 59.3 °F /  15.2 °C 55.7 °F /  13.2 °C 30.20 in /  1022.6 hPa ENE 0.3 mph /  0.5 km/h 1.2 mph /  1.9 km/h 88 % 0.00 in /  0 mm
05:36 59.4 °F /  15.2 °C 55.8 °F /  13.2 °C 30.20 in /  1022.6 hPa ENE 0.1 mph /  0.2 km/h 1.2 mph /  1.9 km/h 88 % 0.00 in /  0 mm
05:41 59.4 °F /  15.2 °C 55.5 °F /  13.1 °C 30.20 in /  1022.6 hPa NE 0.8 mph /  1.3 km/h 1.2 mph /  1.9 km/h 87 % 0.00 in /  0 mm
05:46 59.4 °F /  15.2 °C 55.5 °F /  13.1 °C 30.21 in /  1022.9 hPa ENE 0.2 mph /  0.3 km/h 3.5 mph /  5.6 km/h 87 % 0.00 in /  0 mm
05:52 59.4 °F /  15.2 °C 55.5 °F /  13.1 °C 30.21 in /  1022.9 hPa Calm     87 % 0.00 in /  0 mm
05:57 59.4 °F /  15.2 °C 55.5 °F /  13.1 °C 30.21 in /  1022.9 hPa ENE 0.3 mph /  0.5 km/h 2.0 mph /  3.2 km/h 87 % 0.00 in /  0 mm
06:02 59.4 °F /  15.2 °C 55.5 °F /  13.1 °C 30.21 in /  1022.9 hPa Calm     87 % 0.00 in /  0 mm
06:07 59.4 °F /  15.2 °C 55.5 °F /  13.1 °C 30.21 in /  1022.9 hPa North 0.9 mph /  1.4 km/h 1.2 mph /  1.9 km/h 87 % 0.00 in /  0 mm
06:12 59.4 °F /  15.2 °C 55.5 °F /  13.1 °C 30.21 in /  1022.9 hPa ENE 1.1 mph /  1.8 km/h 4.6 mph /  7.4 km/h 87 % 0.00 in /  0 mm
06:17 59.4 °F /  15.2 °C 55.5 °F /  13.1 °C 30.22 in /  1023.2 hPa NE 0.9 mph /  1.4 km/h 4.0 mph /  6.4 km/h 87 % 0.00 in /  0 mm
06:22 59.5 °F /  15.3 °C 55.6 °F /  13.1 °C 30.21 in /  1022.9 hPa NE 0.4 mph /  0.6 km/h 2.3 mph /  3.7 km/h 87 % 0.00 in /  0 mm
06:27 59.5 °F /  15.3 °C 55.6 °F /  13.1 °C 30.22 in /  1023.2 hPa NNE 0.6 mph /  1 km/h 3.5 mph /  5.6 km/h 87 % 0.00 in /  0 mm
06:32 59.6 °F /  15.3 °C 55.7 °F /  13.2 °C 30.22 in /  1023.2 hPa NE 0.9 mph /  1.4 km/h 2.3 mph /  3.7 km/h 87 % 0.00 in /  0 mm
06:37 59.6 °F /  15.3 °C 55.7 °F /  13.2 °C 30.22 in /  1023.2 hPa NNE 0.6 mph /  1 km/h 2.3 mph /  3.7 km/h 87 % 0.00 in /  0 mm
06:42 59.8 °F /  15.4 °C 55.9 °F /  13.3 °C 30.22 in /  1023.2 hPa NNE 2.1 mph /  3.4 km/h 3.5 mph /  5.6 km/h 87 % 0.00 in /  0 mm
06:47 59.8 °F /  15.4 °C 55.9 °F /  13.3 °C 30.22 in /  1023.2 hPa NE 1.8 mph /  2.9 km/h 5.8 mph /  9.3 km/h 87 % 0.00 in /  0 mm
06:52 60.0 °F /  15.6 °C 55.8 °F /  13.2 °C 30.22 in /  1023.2 hPa NE 0.3 mph /  0.5 km/h 3.5 mph /  5.6 km/h 86 % 0.00 in /  0 mm
06:57 60.1 °F /  15.6 °C 55.9 °F /  13.3 °C 30.22 in /  1023.2 hPa NE 1.4 mph /  2.3 km/h 3.5 mph /  5.6 km/h 86 % 0.00 in /  0 mm
07:03 60.2 °F /  15.7 °C 56.0 °F /  13.3 °C 30.22 in /  1023.2 hPa ENE 1.0 mph /  1.6 km/h 3.0 mph /  4.8 km/h 86 % 0.00 in /  0 mm
07:08 60.4 °F /  15.8 °C 56.2 °F /  13.4 °C 30.22 in /  1023.2 hPa NE 2.1 mph /  3.4 km/h 5.0 mph /  8 km/h 86 % 0.00 in /  0 mm
07:13 60.5 °F /  15.8 °C 56.0 °F /  13.3 °C 30.22 in /  1023.2 hPa ENE 2.4 mph /  3.9 km/h 3.5 mph /  5.6 km/h 85 % 0.00 in /  0 mm
07:18 60.7 °F /  15.9 °C 56.2 °F /  13.4 °C 30.22 in /  1023.2 hPa NNE 1.6 mph /  2.6 km/h 3.5 mph /  5.6 km/h 85 % 0.00 in /  0 mm
07:23 60.9 °F /  16.1 °C 56.4 °F /  13.6 °C 30.22 in /  1023.2 hPa ENE 1.6 mph /  2.6 km/h 4.0 mph /  6.4 km/h 85 % 0.00 in /  0 mm
07:28 61.1 °F /  16.2 °C 56.6 °F /  13.7 °C 30.22 in /  1023.2 hPa ENE 1.8 mph /  2.9 km/h 3.5 mph /  5.6 km/h 85 % 0.00 in /  0 mm
07:33 61.3 °F /  16.3 °C 56.4 °F /  13.6 °C 30.22 in /  1023.2 hPa NE 1.3 mph /  2.1 km/h 4.6 mph /  7.4 km/h 84 % 0.00 in /  0 mm
07:38 61.5 °F /  16.4 °C 56.6 °F /  13.7 °C 30.22 in /  1023.2 hPa ENE 2.1 mph /  3.4 km/h 3.5 mph /  5.6 km/h 84 % 0.00 in /  0 mm
07:43 61.8 °F /  16.6 °C 56.9 °F /  13.8 °C 30.22 in /  1023.2 hPa NNE 1.1 mph /  1.8 km/h 3.5 mph /  5.6 km/h 84 % 0.00 in /  0 mm
07:48 62.0 °F /  16.7 °C 56.8 °F /  13.8 °C 30.22 in /  1023.2 hPa NE 1.7 mph /  2.7 km/h 3.5 mph /  5.6 km/h 83 % 0.00 in /  0 mm
07:53 62.2 °F /  16.8 °C 56.6 °F /  13.7 °C 30.23 in /  1023.6 hPa NE 1.9 mph /  3.1 km/h 9.0 mph /  14.5 km/h 82 % 0.00 in /  0 mm
07:58 62.5 °F /  16.9 °C 56.9 °F /  13.8 °C 30.22 in /  1023.2 hPa ENE 1.4 mph /  2.3 km/h 4.0 mph /  6.4 km/h 82 % 0.00 in /  0 mm
08:03 62.8 °F /  17.1 °C 57.2 °F /  14 °C 30.23 in /  1023.6 hPa ENE 1.7 mph /  2.7 km/h 3.5 mph /  5.6 km/h 82 % 0.00 in /  0 mm
08:08 63.0 °F /  17.2 °C 57.4 °F /  14.1 °C 30.23 in /  1023.6 hPa NNE 2.3 mph /  3.7 km/h 6.9 mph /  11.1 km/h 82 % 0.00 in /  0 mm
08:13 63.3 °F /  17.4 °C 57.4 °F /  14.1 °C 30.22 in /  1023.2 hPa NE 1.5 mph /  2.4 km/h 3.5 mph /  5.6 km/h 81 % 0.00 in /  0 mm
08:18 63.5 °F /  17.5 °C 57.2 °F /  14 °C 30.23 in /  1023.6 hPa ENE 2.9 mph /  4.7 km/h 5.8 mph /  9.3 km/h 80 % 0.00 in /  0 mm
08:23 63.6 °F /  17.6 °C 57.3 °F /  14.1 °C 30.23 in /  1023.6 hPa NE 2.6 mph /  4.2 km/h 6.9 mph /  11.1 km/h 80 % 0.00 in /  0 mm
08:28 63.8 °F /  17.7 °C 57.5 °F /  14.2 °C 30.22 in /  1023.2 hPa NE 3.9 mph /  6.3 km/h 9.2 mph /  14.8 km/h 80 % 0.00 in /  0 mm
08:33 64.0 °F /  17.8 °C 57.4 °F /  14.1 °C 30.23 in /  1023.6 hPa ENE 5.1 mph /  8.2 km/h 9.2 mph /  14.8 km/h 79 % 0.00 in /  0 mm
08:38 64.2 °F /  17.9 °C 57.5 °F /  14.2 °C 30.23 in /  1023.6 hPa East 5.1 mph /  8.2 km/h 9.2 mph /  14.8 km/h 79 % 0.00 in /  0 mm
08:43 64.3 °F /  17.9 °C 57.6 °F /  14.2 °C 30.23 in /  1023.6 hPa NE 3.0 mph /  4.8 km/h 5.8 mph /  9.3 km/h 79 % 0.00 in /  0 mm
08:48 64.5 °F /  18.1 °C 57.8 °F /  14.3 °C 30.23 in /  1023.6 hPa NE 2.6 mph /  4.2 km/h 4.6 mph /  7.4 km/h 79 % 0.00 in /  0 mm
08:53 64.8 °F /  18.2 °C 57.8 °F /  14.3 °C 30.23 in /  1023.6 hPa NE 2.7 mph /  4.3 km/h 6.9 mph /  11.1 km/h 78 % 0.00 in /  0 mm
08:58 65.0 °F /  18.3 °C 58.3 °F /  14.6 °C 30.23 in /  1023.6 hPa ENE 2.6 mph /  4.2 km/h 5.8 mph /  9.3 km/h 79 % 0.00 in /  0 mm
09:03 65.2 °F /  18.4 °C 57.8 °F /  14.3 °C 30.23 in /  1023.6 hPa ENE 3.1 mph /  5 km/h 5.8 mph /  9.3 km/h 77 % 0.00 in /  0 mm
09:08 65.3 °F /  18.5 °C 57.5 °F /  14.2 °C 30.23 in /  1023.6 hPa NE 4.0 mph /  6.4 km/h 5.8 mph /  9.3 km/h 76 % 0.00 in /  0 mm
09:13 65.5 °F /  18.6 °C 57.7 °F /  14.3 °C 30.23 in /  1023.6 hPa ENE 2.4 mph /  3.9 km/h 4.0 mph /  6.4 km/h 76 % 0.00 in /  0 mm
09:18 65.7 °F /  18.7 °C 58.3 °F /  14.6 °C 30.23 in /  1023.6 hPa ENE 2.5 mph /  4 km/h 4.6 mph /  7.4 km/h 77 % 0.00 in /  0 mm
09:23 65.9 °F /  18.8 °C 58.5 °F /  14.7 °C 30.23 in /  1023.6 hPa NE 3.6 mph /  5.8 km/h 5.8 mph /  9.3 km/h 77 % 0.00 in /  0 mm
09:24 65.9 °F /  18.8 °C 58.5 °F /  14.7 °C 30.23 in /  1023.6 hPa NNE 2.7 mph /  4.3 km/h 5.8 mph /  9.3 km/h 77 % 0.00 in /  0 mm
09:29 66.1 °F /  18.9 °C 58.3 °F /  14.6 °C 30.23 in /  1023.6 hPa ENE 3.3 mph /  5.3 km/h 8.1 mph /  13 km/h 76 % 0.00 in /  0 mm
09:34 66.3 °F /  19.1 °C 58.5 °F /  14.7 °C 30.23 in /  1023.6 hPa ENE 4.8 mph /  7.7 km/h 9.2 mph /  14.8 km/h 76 % 0.00 in /  0 mm
09:39 66.6 °F /  19.2 °C 58.8 °F /  14.9 °C 30.24 in /  1023.9 hPa NE 2.8 mph /  4.5 km/h 8.1 mph /  13 km/h 76 % 0.00 in /  0 mm
09:44 66.9 °F /  19.4 °C 58.3 °F /  14.6 °C 30.24 in /  1023.9 hPa ENE 2.8 mph /  4.5 km/h 9.2 mph /  14.8 km/h 74 % 0.00 in /  0 mm
09:49 67.3 °F /  19.6 °C 58.7 °F /  14.8 °C 30.24 in /  1023.9 hPa North 3.4 mph /  5.5 km/h 6.9 mph /  11.1 km/h 74 % 0.00 in /  0 mm
09:54 68.0 °F /  20 °C 59.4 °F /  15.2 °C 30.24 in /  1023.9 hPa ENE 3.2 mph /  5.1 km/h 5.8 mph /  9.3 km/h 74 % 0.00 in /  0 mm
09:59 68.8 °F /  20.4 °C 59.4 °F /  15.2 °C 30.24 in /  1023.9 hPa NE 2.8 mph /  4.5 km/h 6.0 mph /  9.7 km/h 72 % 0.00 in /  0 mm
10:04 69.5 °F /  20.8 °C 59.3 °F /  15.2 °C 30.24 in /  1023.9 hPa NE 5.1 mph /  8.2 km/h 9.2 mph /  14.8 km/h 70 % 0.00 in /  0 mm
10:09 69.8 °F /  21 °C 59.2 °F /  15.1 °C 30.24 in /  1023.9 hPa ENE 1.7 mph /  2.7 km/h 3.5 mph /  5.6 km/h 69 % 0.00 in /  0 mm
10:14 69.9 °F /  21.1 °C 58.9 °F /  14.9 °C 30.24 in /  1023.9 hPa ENE 2.6 mph /  4.2 km/h 5.0 mph /  8 km/h 68 % 0.00 in /  0 mm
10:19 69.9 °F /  21.1 °C 59.3 °F /  15.2 °C 30.24 in /  1023.9 hPa ENE 3.6 mph /  5.8 km/h 8.0 mph /  12.9 km/h 69 % 0.00 in /  0 mm
10:20 69.9 °F /  21.1 °C 59.3 °F /  15.2 °C 30.24 in /  1023.9 hPa NE 4.0 mph /  6.4 km/h 9.2 mph /  14.8 km/h 69 % 0.00 in /  0 mm
10:25 69.9 °F /  21.1 °C 59.7 °F /  15.4 °C 30.24 in /  1023.9 hPa NE 2.1 mph /  3.4 km/h 3.5 mph /  5.6 km/h 70 % 0.00 in /  0 mm
10:30 69.9 °F /  21.1 °C 60.1 °F /  15.6 °C 30.24 in /  1023.9 hPa NNE 1.7 mph /  2.7 km/h 2.3 mph /  3.7 km/h 71 % 0.00 in /  0 mm
10:35 69.9 °F /  21.1 °C 59.7 °F /  15.4 °C 30.24 in /  1023.9 hPa ENE 2.2 mph /  3.5 km/h 4.6 mph /  7.4 km/h 70 % 0.00 in /  0 mm
10:40 69.9 °F /  21.1 °C 59.7 °F /  15.4 °C 30.24 in /  1023.9 hPa NNE 2.0 mph /  3.2 km/h 7.0 mph /  11.3 km/h 70 % 0.00 in /  0 mm
10:45 70.1 °F /  21.2 °C 60.3 °F /  15.7 °C 30.24 in /  1023.9 hPa NE 1.3 mph /  2.1 km/h 3.5 mph /  5.6 km/h 71 % 0.00 in /  0 mm
10:50 70.4 °F /  21.3 °C 60.5 °F /  15.8 °C 30.24 in /  1023.9 hPa NE 1.1 mph /  1.8 km/h 3.0 mph /  4.8 km/h 71 % 0.00 in /  0 mm
10:55 70.6 °F /  21.4 °C 59.9 °F /  15.5 °C 30.24 in /  1023.9 hPa NNE 2.1 mph /  3.4 km/h 3.5 mph /  5.6 km/h 69 % 0.00 in /  0 mm
11:00 71.1 °F /  21.7 °C 60.4 °F /  15.8 °C 30.24 in /  1023.9 hPa NE 1.2 mph /  1.9 km/h 2.3 mph /  3.7 km/h 69 % 0.00 in /  0 mm
11:05 71.8 °F /  22.1 °C 61.1 °F /  16.2 °C 30.24 in /  1023.9 hPa ENE 2.1 mph /  3.4 km/h 3.5 mph /  5.6 km/h 69 % 0.00 in /  0 mm
11:10 72.1 °F /  22.3 °C 60.5 °F /  15.8 °C 30.24 in /  1023.9 hPa ENE 2.7 mph /  4.3 km/h 5.8 mph /  9.3 km/h 67 % 0.00 in /  0 mm
11:15 72.7 °F /  22.6 °C 61.1 °F /  16.2 °C 30.24 in /  1023.9 hPa ENE 1.9 mph /  3.1 km/h 6.0 mph /  9.7 km/h 67 % 0.00 in /  0 mm
11:20 73.0 °F /  22.8 °C 61.0 °F /  16.1 °C 30.24 in /  1023.9 hPa ENE 1.8 mph /  2.9 km/h 4.6 mph /  7.4 km/h 66 % 0.00 in /  0 mm
11:25 73.2 °F /  22.9 °C 60.7 °F /  15.9 °C 30.24 in /  1023.9 hPa NE 2.2 mph /  3.5 km/h 8.1 mph /  13 km/h 65 % 0.00 in /  0 mm
11:30 74.0 °F /  23.3 °C 62.3 °F /  16.8 °C 30.24 in /  1023.9 hPa NE 3.3 mph /  5.3 km/h 4.6 mph /  7.4 km/h 67 % 0.00 in /  0 mm
11:35 74.4 °F /  23.6 °C 61.0 °F /  16.1 °C 30.24 in /  1023.9 hPa ENE 2.8 mph /  4.5 km/h 4.6 mph /  7.4 km/h 63 % 0.00 in /  0 mm
11:40 74.8 °F /  23.8 °C 61.8 °F /  16.6 °C 30.24 in /  1023.9 hPa NE 2.2 mph /  3.5 km/h 3.5 mph /  5.6 km/h 64 % 0.00 in /  0 mm
11:45 75.1 °F /  23.9 °C 61.6 °F /  16.4 °C 30.24 in /  1023.9 hPa NE 0.8 mph /  1.3 km/h 3.5 mph /  5.6 km/h 63 % 0.00 in /  0 mm
11:50 75.7 °F /  24.3 °C 63.1 °F /  17.3 °C 30.24 in /  1023.9 hPa NE 0.1 mph /  0.2 km/h 1.2 mph /  1.9 km/h 65 % 0.00 in /  0 mm
11:55 76.0 °F /  24.4 °C 61.6 °F /  16.4 °C 30.24 in /  1023.9 hPa ENE 3.8 mph /  6.1 km/h 4.6 mph /  7.4 km/h 61 % 0.00 in /  0 mm
12:00 76.2 °F /  24.6 °C 62.7 °F /  17.1 °C 30.24 in /  1023.9 hPa NNE 0.5 mph /  0.8 km/h 2.3 mph /  3.7 km/h 63 % 0.00 in /  0 mm
12:05 76.8 °F /  24.9 °C 61.4 °F /  16.3 °C 30.24 in /  1023.9 hPa ENE 2.2 mph /  3.5 km/h 3.5 mph /  5.6 km/h 59 % 0.00 in /  0 mm
12:10 77.0 °F /  25 °C 61.1 °F /  16.2 °C 30.24 in /  1023.9 hPa NE 2.6 mph /  4.2 km/h 4.6 mph /  7.4 km/h 58 % 0.00 in /  0 mm
12:15 77.2 °F /  25.1 °C 63.6 °F /  17.6 °C 30.24 in /  1023.9 hPa NE 0.7 mph /  1.1 km/h 2.3 mph /  3.7 km/h 63 % 0.00 in /  0 mm
12:20 77.3 °F /  25.2 °C 61.4 °F /  16.3 °C 30.24 in /  1023.9 hPa ENE 1.7 mph /  2.7 km/h 4.6 mph /  7.4 km/h 58 % 0.00 in /  0 mm
12:25 77.1 °F /  25.1 °C 61.2 °F /  16.2 °C 30.23 in /  1023.6 hPa NE 2.9 mph /  4.7 km/h 8.1 mph /  13 km/h 58 % 0.00 in /  0 mm
12:30 77.1 °F /  25.1 °C 61.7 °F /  16.5 °C 30.23 in /  1023.6 hPa ENE 2.6 mph /  4.2 km/h 6.9 mph /  11.1 km/h 59 % 0.00 in /  0 mm
12:35 76.8 °F /  24.9 °C 60.9 °F /  16.1 °C 30.23 in /  1023.6 hPa ENE 2.4 mph /  3.9 km/h 5.8 mph /  9.3 km/h 58 % 0.00 in /  0 mm
12:41 76.4 °F /  24.7 °C 62.0 °F /  16.7 °C 30.23 in /  1023.6 hPa NE 1.0 mph /  1.6 km/h 9.0 mph /  14.5 km/h 61 % 0.00 in /  0 mm
12:46 76.7 °F /  24.8 °C 61.8 °F /  16.6 °C 30.23 in /  1023.6 hPa NE 3.0 mph /  4.8 km/h 6.0 mph /  9.7 km/h 60 % 0.00 in /  0 mm
12:51 76.9 °F /  24.9 °C 62.9 °F /  17.2 °C 30.23 in /  1023.6 hPa NNE 1.0 mph /  1.6 km/h 4.0 mph /  6.4 km/h 62 % 0.00 in /  0 mm
12:56 77.0 °F /  25 °C 63.0 °F /  17.2 °C 30.22 in /  1023.2 hPa NE 1.0 mph /  1.6 km/h 4.0 mph /  6.4 km/h 62 % 0.00 in /  0 mm
13:01 77.0 °F /  25 °C 61.6 °F /  16.4 °C 30.23 in /  1023.6 hPa NNE 4.1 mph /  6.6 km/h 4.6 mph /  7.4 km/h 59 % 0.00 in /  0 mm
13:06 77.0 °F /  25 °C 63.0 °F /  17.2 °C 30.23 in /  1023.6 hPa ENE 1.9 mph /  3.1 km/h 3.5 mph /  5.6 km/h 62 % 0.00 in /  0 mm
13:11 77.2 °F /  25.1 °C 62.7 °F /  17.1 °C 30.22 in /  1023.2 hPa NE 2.8 mph /  4.5 km/h 3.5 mph /  5.6 km/h 61 % 0.00 in /  0 mm
13:16 77.5 °F /  25.3 °C 61.6 °F /  16.4 °C 30.22 in /  1023.2 hPa ENE 3.1 mph /  5 km/h 5.0 mph /  8 km/h 58 % 0.00 in /  0 mm
13:21 77.6 °F /  25.3 °C 63.5 °F /  17.5 °C 30.22 in /  1023.2 hPa NE 1.3 mph /  2.1 km/h 2.3 mph /  3.7 km/h 62 % 0.00 in /  0 mm
13:26 77.8 °F /  25.4 °C 62.3 °F /  16.8 °C 30.22 in /  1023.2 hPa NE 3.7 mph /  6 km/h 5.8 mph /  9.3 km/h 59 % 0.00 in /  0 mm
13:31 78.0 °F /  25.6 °C 63.9 °F /  17.7 °C 30.22 in /  1023.2 hPa Calm   1.2 mph /  1.9 km/h 62 % 0.00 in /  0 mm
13:36 78.2 °F /  25.7 °C 62.2 °F /  16.8 °C 30.22 in /  1023.2 hPa NE 1.1 mph /  1.8 km/h 2.3 mph /  3.7 km/h 58 % 0.00 in /  0 mm
13:41 78.3 °F /  25.7 °C 63.7 °F /  17.6 °C 30.22 in /  1023.2 hPa NE 0.5 mph /  0.8 km/h 1.2 mph /  1.9 km/h 61 % 0.00 in /  0 mm
13:46 78.2 °F /  25.7 °C 62.7 °F /  17.1 °C 30.22 in /  1023.2 hPa ENE 0.5 mph /  0.8 km/h 2.3 mph /  3.7 km/h 59 % 0.00 in /  0 mm
13:51 78.3 °F /  25.7 °C 61.8 °F /  16.6 °C 30.21 in /  1022.9 hPa NE 1.5 mph /  2.4 km/h 3.5 mph /  5.6 km/h 57 % 0.00 in /  0 mm
13:52 78.3 °F /  25.7 °C 62.8 °F /  17.1 °C 30.21 in /  1022.9 hPa NE 1.8 mph /  2.9 km/h 5.0 mph /  8 km/h 59 % 0.00 in /  0 mm
13:57 78.4 °F /  25.8 °C 62.9 °F /  17.2 °C 30.21 in /  1022.9 hPa NE 3.7 mph /  6 km/h 6.9 mph /  11.1 km/h 59 % 0.00 in /  0 mm
14:02 78.3 °F /  25.7 °C 61.8 °F /  16.6 °C 30.20 in /  1022.6 hPa ENE 1.6 mph /  2.6 km/h 3.5 mph /  5.6 km/h 57 % 0.00 in /  0 mm
14:07 78.3 °F /  25.7 °C 62.8 °F /  17.1 °C 30.20 in /  1022.6 hPa NE 0.7 mph /  1.1 km/h 2.3 mph /  3.7 km/h 59 % 0.00 in /  0 mm
14:12 78.5 °F /  25.8 °C 63.0 °F /  17.2 °C 30.20 in /  1022.6 hPa NE 0.8 mph /  1.3 km/h 2.3 mph /  3.7 km/h 59 % 0.00 in /  0 mm
14:17 78.8 °F /  26 °C 62.3 °F /  16.8 °C 30.20 in /  1022.6 hPa NE 1.5 mph /  2.4 km/h 3.5 mph /  5.6 km/h 57 % 0.00 in /  0 mm
14:22 78.7 °F /  25.9 °C 60.7 °F /  15.9 °C 30.20 in /  1022.6 hPa East 3.3 mph /  5.3 km/h 6.9 mph /  11.1 km/h 54 % 0.00 in /  0 mm
14:27 78.4 °F /  25.8 °C 60.4 °F /  15.8 °C 30.20 in /  1022.6 hPa East 3.5 mph /  5.6 km/h 8.0 mph /  12.9 km/h 54 % 0.00 in /  0 mm
14:32 78.3 °F /  25.7 °C 61.8 °F /  16.6 °C 30.19 in /  1022.2 hPa NE 0.3 mph /  0.5 km/h 2.3 mph /  3.7 km/h 57 % 0.00 in /  0 mm
14:37 78.5 °F /  25.8 °C 61.0 °F /  16.1 °C 30.19 in /  1022.2 hPa ENE 0.4 mph /  0.6 km/h 3.5 mph /  5.6 km/h 55 % 0.00 in /  0 mm
14:42 78.8 °F /  26 °C 58.6 °F /  14.8 °C 30.19 in /  1022.2 hPa ENE 2.5 mph /  4 km/h 5.0 mph /  8 km/h 50 % 0.00 in /  0 mm
14:48 78.8 °F /  26 °C 58.6 °F /  14.8 °C 30.19 in /  1022.2 hPa ENE 0.4 mph /  0.6 km/h 4.6 mph /  7.4 km/h 50 % 0.00 in /  0 mm
14:53 78.9 °F /  26.1 °C 58.7 °F /  14.8 °C 30.19 in /  1022.2 hPa NE 1.6 mph /  2.6 km/h 3.5 mph /  5.6 km/h 50 % 0.00 in /  0 mm
14:58 78.7 °F /  25.9 °C 57.4 °F /  14.1 °C 30.19 in /  1022.2 hPa ENE 0.7 mph /  1.1 km/h 3.5 mph /  5.6 km/h 48 % 0.00 in /  0 mm
15:03 78.6 °F /  25.9 °C 57.3 °F /  14.1 °C 30.18 in /  1021.9 hPa East 1.4 mph /  2.3 km/h 5.0 mph /  8 km/h 48 % 0.00 in /  0 mm
15:08 78.6 °F /  25.9 °C 57.8 °F /  14.3 °C 30.18 in /  1021.9 hPa NE 1.1 mph /  1.8 km/h 3.5 mph /  5.6 km/h 49 % 0.00 in /  0 mm
15:13 78.7 °F /  25.9 °C 57.4 °F /  14.1 °C 30.18 in /  1021.9 hPa NE 0.8 mph /  1.3 km/h 3.5 mph /  5.6 km/h 48 % 0.00 in /  0 mm
15:18 78.7 °F /  25.9 °C 56.2 °F /  13.4 °C 30.19 in /  1022.2 hPa ENE 1.1 mph /  1.8 km/h 4.6 mph /  7.4 km/h 46 % 0.00 in /  0 mm
15:23 78.8 °F /  26 °C 58.0 °F /  14.4 °C 30.18 in /  1021.9 hPa ENE 0.5 mph /  0.8 km/h 2.3 mph /  3.7 km/h 49 % 0.00 in /  0 mm
15:28 78.8 °F /  26 °C 56.3 °F /  13.5 °C 30.18 in /  1021.9 hPa NE 0.6 mph /  1 km/h 2.3 mph /  3.7 km/h 46 % 0.00 in /  0 mm
15:33 78.9 °F /  26.1 °C 57.0 °F /  13.9 °C 30.17 in /  1021.6 hPa NE 0.5 mph /  0.8 km/h 2.3 mph /  3.7 km/h 47 % 0.00 in /  0 mm
15:38 78.9 °F /  26.1 °C 57.0 °F /  13.9 °C 30.17 in /  1021.6 hPa NE 0.9 mph /  1.4 km/h 3.0 mph /  4.8 km/h 47 % 0.00 in /  0 mm
15:43 78.9 °F /  26.1 °C 55.8 °F /  13.2 °C 30.18 in /  1021.9 hPa NE 0.6 mph /  1 km/h 2.3 mph /  3.7 km/h 45 % 0.00 in /  0 mm
15:48 79.0 °F /  26.1 °C 55.2 °F /  12.9 °C 30.18 in /  1021.9 hPa ENE 0.8 mph /  1.3 km/h 2.3 mph /  3.7 km/h 44 % 0.00 in /  0 mm
15:53 78.8 °F /  26 °C 54.4 °F /  12.4 °C 30.18 in /  1021.9 hPa ENE 0.2 mph /  0.3 km/h 1.2 mph /  1.9 km/h 43 % 0.00 in /  0 mm
15:59 78.8 °F /  26 °C 55.0 °F /  12.8 °C 30.18 in /  1021.9 hPa East 0.5 mph /  0.8 km/h 2.3 mph /  3.7 km/h 44 % 0.00 in /  0 mm
16:04 78.7 °F /  25.9 °C 55.6 °F /  13.1 °C 30.18 in /  1021.9 hPa East 0.5 mph /  0.8 km/h 2.3 mph /  3.7 km/h 45 % 0.00 in /  0 mm
16:09 78.6 °F /  25.9 °C 54.2 °F /  12.3 °C 30.18 in /  1021.9 hPa East 0.3 mph /  0.5 km/h 1.2 mph /  1.9 km/h 43 % 0.00 in /  0 mm
16:14 78.4 °F /  25.8 °C 53.4 °F /  11.9 °C 30.17 in /  1021.6 hPa East 0.5 mph /  0.8 km/h 1.2 mph /  1.9 km/h 42 % 0.00 in /  0 mm
16:19 78.2 °F /  25.7 °C 54.5 °F /  12.5 °C 30.17 in /  1021.6 hPa East 0.3 mph /  0.5 km/h 1.2 mph /  1.9 km/h 44 % 0.00 in /  0 mm
16:24 78.0 °F /  25.6 °C 54.3 °F /  12.4 °C 30.17 in /  1021.6 hPa East 0.6 mph /  1 km/h 1.2 mph /  1.9 km/h 44 % 0.00 in /  0 mm
16:29 77.9 °F /  25.5 °C 55.5 °F /  13.1 °C 30.17 in /  1021.6 hPa East 0.7 mph /  1.1 km/h 1.2 mph /  1.9 km/h 46 % 0.00 in /  0 mm
16:34 77.7 °F /  25.4 °C 54.7 °F /  12.6 °C 30.17 in /  1021.6 hPa East 0.4 mph /  0.6 km/h 1.2 mph /  1.9 km/h 45 % 0.00 in /  0 mm
16:39 77.8 °F /  25.4 °C 54.8 °F /  12.7 °C 30.17 in /  1021.6 hPa East 0.5 mph /  0.8 km/h 1.2 mph /  1.9 km/h 45 % 0.00 in /  0 mm
16:44 77.7 °F /  25.4 °C 54.0 °F /  12.2 °C 30.17 in /  1021.6 hPa East 0.1 mph /  0.2 km/h 2.3 mph /  3.7 km/h 44 % 0.00 in /  0 mm
16:49 77.6 °F /  25.3 °C 54.0 °F /  12.2 °C 30.16 in /  1021.2 hPa East 0.5 mph /  0.8 km/h 2.3 mph /  3.7 km/h 44 % 0.00 in /  0 mm
16:54 77.3 °F /  25.2 °C 53.7 °F /  12.1 °C 30.16 in /  1021.2 hPa East 0.3 mph /  0.5 km/h 1.2 mph /  1.9 km/h 44 % 0.00 in /  0 mm
16:59 77.2 °F /  25.1 °C 53.6 °F /  12 °C 30.16 in /  1021.2 hPa East 0.5 mph /  0.8 km/h 2.3 mph /  3.7 km/h 44 % 0.00 in /  0 mm
17:04 77.0 °F /  25 °C 52.8 °F /  11.6 °C 30.16 in /  1021.2 hPa East 0.2 mph /  0.3 km/h 1.2 mph /  1.9 km/h 43 % 0.00 in /  0 mm
17:09 77.0 °F /  25 °C 53.4 °F /  11.9 °C 30.17 in /  1021.6 hPa East 0.4 mph /  0.6 km/h 1.2 mph /  1.9 km/h 44 % 0.00 in /  0 mm
17:14 76.8 °F /  24.9 °C 53.2 °F /  11.8 °C 30.17 in /  1021.6 hPa East 0.1 mph /  0.2 km/h 1.0 mph /  1.6 km/h 44 % 0.00 in /  0 mm
17:19 76.7 °F /  24.8 °C 54.4 °F /  12.4 °C 30.17 in /  1021.6 hPa Calm     46 % 0.00 in /  0 mm
17:24 76.6 °F /  24.8 °C 53.7 °F /  12.1 °C 30.17 in /  1021.6 hPa East 0.1 mph /  0.2 km/h 1.2 mph /  1.9 km/h 45 % 0.00 in /  0 mm
17:29 76.4 °F /  24.7 °C 53.5 °F /  11.9 °C 30.17 in /  1021.6 hPa East 0.2 mph /  0.3 km/h 1.2 mph /  1.9 km/h 45 % 0.00 in /  0 mm
17:34 76.2 °F /  24.6 °C 55.1 °F /  12.8 °C 30.17 in /  1021.6 hPa East 0.1 mph /  0.2 km/h 1.2 mph /  1.9 km/h 48 % 0.00 in /  0 mm
17:39 76.1 °F /  24.5 °C 55.0 °F /  12.8 °C 30.17 in /  1021.6 hPa Calm     48 % 0.00 in /  0 mm
17:44 76.0 °F /  24.4 °C 55.5 °F /  13.1 °C 30.17 in /  1021.6 hPa East 0.1 mph /  0.2 km/h   49 % 0.00 in /  0 mm
17:49 75.9 °F /  24.4 °C 55.9 °F /  13.3 °C 30.17 in /  1021.6 hPa Calm   1.2 mph /  1.9 km/h 50 % 0.00 in /  0 mm
17:54 75.8 °F /  24.3 °C 55.3 °F /  12.9 °C 30.17 in /  1021.6 hPa Calm   1.2 mph /  1.9 km/h 49 % 0.00 in /  0 mm
17:59 75.5 °F /  24.2 °C 55.0 °F /  12.8 °C 30.17 in /  1021.6 hPa Calm   1.2 mph /  1.9 km/h 49 % 0.00 in /  0 mm
18:04 75.3 °F /  24.1 °C 55.4 °F /  13 °C 30.17 in /  1021.6 hPa Calm   1.2 mph /  1.9 km/h 50 % 0.00 in /  0 mm
18:09 75.1 °F /  23.9 °C 55.7 °F /  13.2 °C 30.17 in /  1021.6 hPa East 0.1 mph /  0.2 km/h 1.2 mph /  1.9 km/h 51 % 0.00 in /  0 mm
18:14 74.8 °F /  23.8 °C 56.5 °F /  13.6 °C 30.17 in /  1021.6 hPa Calm     53 % 0.00 in /  0 mm
18:19 74.6 °F /  23.7 °C 56.9 °F /  13.8 °C 30.17 in /  1021.6 hPa Calm     54 % 0.00 in /  0 mm
18:24 74.4 °F /  23.6 °C 56.7 °F /  13.7 °C 30.17 in /  1021.6 hPa Calm     54 % 0.00 in /  0 mm
18:29 74.1 °F /  23.4 °C 56.4 °F /  13.6 °C 30.18 in /  1021.9 hPa Calm     54 % 0.00 in /  0 mm
18:34 73.9 °F /  23.3 °C 56.7 °F /  13.7 °C 30.18 in /  1021.9 hPa Calm     55 % 0.00 in /  0 mm
18:39 73.8 °F /  23.2 °C 57.1 °F /  13.9 °C 30.18 in /  1021.9 hPa East 0.1 mph /  0.2 km/h 1.2 mph /  1.9 km/h 56 % 0.00 in /  0 mm
18:45 73.6 °F /  23.1 °C 56.9 °F /  13.8 °C 30.18 in /  1021.9 hPa Calm     56 % 0.00 in /  0 mm
18:50 73.5 °F /  23.1 °C 57.3 °F /  14.1 °C 30.18 in /  1021.9 hPa East 0.2 mph /  0.3 km/h 1.0 mph /  1.6 km/h 57 % 0.00 in /  0 mm
18:55 73.2 °F /  22.9 °C 57.5 °F /  14.2 °C 30.18 in /  1021.9 hPa ESE 1.6 mph /  2.6 km/h 3.5 mph /  5.6 km/h 58 % 0.00 in /  0 mm
19:00 72.9 °F /  22.7 °C 58.2 °F /  14.6 °C 30.18 in /  1021.9 hPa SE 1.2 mph /  1.9 km/h 1.2 mph /  1.9 km/h 60 % 0.00 in /  0 mm
19:05 72.6 °F /  22.6 °C 58.4 °F /  14.7 °C 30.19 in /  1022.2 hPa SE 1.0 mph /  1.6 km/h 3.5 mph /  5.6 km/h 61 % 0.00 in /  0 mm
19:10 72.1 °F /  22.3 °C 57.9 °F /  14.4 °C 30.19 in /  1022.2 hPa Calm   1.2 mph /  1.9 km/h 61 % 0.00 in /  0 mm
19:15 71.7 °F /  22.1 °C 58.0 °F /  14.4 °C 30.19 in /  1022.2 hPa SE 1.5 mph /  2.4 km/h 3.5 mph /  5.6 km/h 62 % 0.00 in /  0 mm
19:20 71.2 °F /  21.8 °C 57.5 °F /  14.2 °C 30.19 in /  1022.2 hPa SE 1.3 mph /  2.1 km/h 3.5 mph /  5.6 km/h 62 % 0.00 in /  0 mm
19:25 70.9 °F /  21.6 °C 57.7 °F /  14.3 °C 30.19 in /  1022.2 hPa Calm   2.3 mph /  3.7 km/h 63 % 0.00 in /  0 mm
19:30 70.7 °F /  21.5 °C 57.9 °F /  14.4 °C 30.19 in /  1022.2 hPa SE 0.4 mph /  0.6 km/h 3.5 mph /  5.6 km/h 64 % 0.00 in /  0 mm
19:35 70.4 °F /  21.3 °C 57.6 °F /  14.2 °C 30.19 in /  1022.2 hPa SE 0.2 mph /  0.3 km/h 1.2 mph /  1.9 km/h 64 % 0.00 in /  0 mm
19:40 70.0 °F /  21.1 °C 57.3 °F /  14.1 °C 30.19 in /  1022.2 hPa SE 1.1 mph /  1.8 km/h 2.3 mph /  3.7 km/h 64 % 0.00 in /  0 mm
19:45 69.7 °F /  20.9 °C 57.4 °F /  14.1 °C 30.19 in /  1022.2 hPa SE 0.8 mph /  1.3 km/h 3.5 mph /  5.6 km/h 65 % 0.00 in /  0 mm
19:50 69.5 °F /  20.8 °C 57.2 °F /  14 °C 30.19 in /  1022.2 hPa SE 2.3 mph /  3.7 km/h 3.5 mph /  5.6 km/h 65 % 0.00 in /  0 mm
19:55 69.2 °F /  20.7 °C 56.9 °F /  13.8 °C 30.19 in /  1022.2 hPa SE 1.5 mph /  2.4 km/h 4.0 mph /  6.4 km/h 65 % 0.00 in /  0 mm
20:00 69.0 °F /  20.6 °C 56.7 °F /  13.7 °C 30.19 in /  1022.2 hPa SE 1.4 mph /  2.3 km/h 3.5 mph /  5.6 km/h 65 % 0.00 in /  0 mm
20:05 68.8 °F /  20.4 °C 57.0 °F /  13.9 °C 30.19 in /  1022.2 hPa SE 0.9 mph /  1.4 km/h 2.3 mph /  3.7 km/h 66 % 0.00 in /  0 mm
20:10 68.6 °F /  20.3 °C 56.8 °F /  13.8 °C 30.19 in /  1022.2 hPa SE 0.8 mph /  1.3 km/h 2.3 mph /  3.7 km/h 66 % 0.00 in /  0 mm
20:15 68.5 °F /  20.3 °C 56.7 °F /  13.7 °C 30.19 in /  1022.2 hPa SE 0.2 mph /  0.3 km/h 3.5 mph /  5.6 km/h 66 % 0.00 in /  0 mm
20:20 68.2 °F /  20.1 °C 56.8 °F /  13.8 °C 30.19 in /  1022.2 hPa SE 0.1 mph /  0.2 km/h 1.2 mph /  1.9 km/h 67 % 0.00 in /  0 mm
20:25 68.1 °F /  20.1 °C 57.1 °F /  13.9 °C 30.19 in /  1022.2 hPa SE 0.8 mph /  1.3 km/h 2.3 mph /  3.7 km/h 68 % 0.00 in /  0 mm
20:30 67.9 °F /  19.9 °C 56.9 °F /  13.8 °C 30.20 in /  1022.6 hPa SE 0.2 mph /  0.3 km/h 2.3 mph /  3.7 km/h 68 % 0.00 in /  0 mm
20:35 67.8 °F /  19.9 °C 56.9 °F /  13.8 °C 30.20 in /  1022.6 hPa SE 0.2 mph /  0.3 km/h 1.2 mph /  1.9 km/h 68 % 0.00 in /  0 mm
20:40 67.7 °F /  19.8 °C 57.2 °F /  14 °C 30.19 in /  1022.2 hPa SE 0.3 mph /  0.5 km/h 1.2 mph /  1.9 km/h 69 % 0.00 in /  0 mm
20:45 67.5 °F /  19.7 °C 57.0 °F /  13.9 °C 30.19 in /  1022.2 hPa SE 0.6 mph /  1 km/h 2.3 mph /  3.7 km/h 69 % 0.00 in /  0 mm
20:50 67.4 °F /  19.7 °C 56.9 °F /  13.8 °C 30.19 in /  1022.2 hPa SE 0.1 mph /  0.2 km/h 1.2 mph /  1.9 km/h 69 % 0.00 in /  0 mm
20:55 67.2 °F /  19.6 °C 56.7 °F /  13.7 °C 30.19 in /  1022.2 hPa Calm   1.2 mph /  1.9 km/h 69 % 0.00 in /  0 mm
21:00 67.1 °F /  19.5 °C 56.6 °F /  13.7 °C 30.20 in /  1022.6 hPa SE 0.2 mph /  0.3 km/h 1.2 mph /  1.9 km/h 69 % 0.00 in /  0 mm
21:05 66.9 °F /  19.4 °C 56.4 °F /  13.6 °C 30.20 in /  1022.6 hPa Calm   1.2 mph /  1.9 km/h 69 % 0.00 in /  0 mm
21:10 66.7 °F /  19.3 °C 56.2 °F /  13.4 °C 30.20 in /  1022.6 hPa Calm     69 % 0.00 in /  0 mm
21:15 66.6 °F /  19.2 °C 56.5 °F /  13.6 °C 30.20 in /  1022.6 hPa Calm     70 % 0.00 in /  0 mm
21:20 66.4 °F /  19.1 °C 56.7 °F /  13.7 °C 30.20 in /  1022.6 hPa Calm     71 % 0.00 in /  0 mm
21:25 66.3 °F /  19.1 °C 57.0 °F /  13.9 °C 30.20 in /  1022.6 hPa Calm     72 % 0.00 in /  0 mm
21:30 66.0 °F /  18.9 °C 56.7 °F /  13.7 °C 30.20 in /  1022.6 hPa Calm     72 % 0.00 in /  0 mm
21:35 65.8 °F /  18.8 °C 56.5 °F /  13.6 °C 30.20 in /  1022.6 hPa Calm     72 % 0.00 in /  0 mm
21:40 65.6 °F /  18.7 °C 56.3 °F /  13.5 °C 30.20 in /  1022.6 hPa Calm     72 % 0.00 in /  0 mm
21:45 65.3 °F /  18.5 °C 56.8 °F /  13.8 °C 30.20 in /  1022.6 hPa Calm     74 % 0.00 in /  0 mm
21:50 64.9 °F /  18.3 °C 57.2 °F /  14 °C 30.20 in /  1022.6 hPa Calm     76 % 0.00 in /  0 mm
21:55 64.5 °F /  18.1 °C 57.1 °F /  13.9 °C 30.20 in /  1022.6 hPa Calm     77 % 0.00 in /  0 mm
22:00 64.2 °F /  17.9 °C 56.8 °F /  13.8 °C 30.20 in /  1022.6 hPa Calm     77 % 0.00 in /  0 mm
22:05 64.0 °F /  17.8 °C 57.0 °F /  13.9 °C 30.20 in /  1022.6 hPa Calm     78 % 0.00 in /  0 mm
22:11 63.8 °F /  17.7 °C 57.2 °F /  14 °C 30.20 in /  1022.6 hPa Calm     79 % 0.00 in /  0 mm
22:16 63.5 °F /  17.5 °C 56.9 °F /  13.8 °C 30.21 in /  1022.9 hPa Calm     79 % 0.00 in /  0 mm
22:21 63.3 °F /  17.4 °C 56.3 °F /  13.5 °C 30.20 in /  1022.6 hPa Calm   1.0 mph /  1.6 km/h 78 % 0.00 in /  0 mm
22:26 63.1 °F /  17.3 °C 55.8 °F /  13.2 °C 30.21 in /  1022.9 hPa Calm   1.0 mph /  1.6 km/h 77 % 0.00 in /  0 mm
22:31 62.9 °F /  17.2 °C 55.6 °F /  13.1 °C 30.21 in /  1022.9 hPa Calm   2.0 mph /  3.2 km/h 77 % 0.00 in /  0 mm
22:36 62.7 °F /  17.1 °C 55.0 °F /  12.8 °C 30.21 in /  1022.9 hPa Calm   2.0 mph /  3.2 km/h 76 % 0.00 in /  0 mm
22:41 62.5 °F /  16.9 °C 54.8 °F /  12.7 °C 30.22 in /  1023.2 hPa SE 1.0 mph /  1.6 km/h 3.0 mph /  4.8 km/h 76 % 0.00 in /  0 mm
22:46 62.4 °F /  16.9 °C 54.3 °F /  12.4 °C 30.22 in /  1023.2 hPa SE 1.0 mph /  1.6 km/h 3.0 mph /  4.8 km/h 75 % 0.00 in /  0 mm
22:51 62.3 °F /  16.8 °C 54.6 °F /  12.6 °C 30.22 in /  1023.2 hPa SE 1.0 mph /  1.6 km/h 2.0 mph /  3.2 km/h 76 % 0.00 in /  0 mm
22:56 62.3 °F /  16.8 °C 54.6 °F /  12.6 °C 30.22 in /  1023.2 hPa Calm   3.0 mph /  4.8 km/h 76 % 0.00 in /  0 mm
23:01 62.3 °F /  16.8 °C 54.6 °F /  12.6 °C 30.22 in /  1023.2 hPa SE 0.4 mph /  0.6 km/h 1.0 mph /  1.6 km/h 76 % 0.00 in /  0 mm
23:06 62.4 °F /  16.9 °C 55.1 °F /  12.8 °C 30.22 in /  1023.2 hPa SE 1.0 mph /  1.6 km/h 3.0 mph /  4.8 km/h 77 % 0.00 in /  0 mm
23:11 62.4 °F /  16.9 °C 55.1 °F /  12.8 °C 30.22 in /  1023.2 hPa SE 0.8 mph /  1.3 km/h 3.0 mph /  4.8 km/h 77 % 0.00 in /  0 mm
23:16 62.4 °F /  16.9 °C 55.1 °F /  12.8 °C 30.22 in /  1023.2 hPa SE 1.0 mph /  1.6 km/h 2.3 mph /  3.7 km/h 77 % 0.00 in /  0 mm
23:21 62.4 °F /  16.9 °C 55.1 °F /  12.8 °C 30.22 in /  1023.2 hPa Calm     77 % 0.00 in /  0 mm
23:26 62.3 °F /  16.8 °C 55.0 °F /  12.8 °C 30.22 in /  1023.2 hPa SE 0.4 mph /  0.6 km/h 1.2 mph /  1.9 km/h 77 % 0.00 in /  0 mm
23:31 62.3 °F /  16.8 °C 55.0 °F /  12.8 °C 30.23 in /  1023.6 hPa SE 0.9 mph /  1.4 km/h 2.3 mph /  3.7 km/h 77 % 0.00 in /  0 mm
23:36 62.3 °F /  16.8 °C 55.0 °F /  12.8 °C 30.22 in /  1023.2 hPa Calm   1.2 mph /  1.9 km/h 77 % 0.00 in /  0 mm
23:41 62.3 °F /  16.8 °C 55.0 °F /  12.8 °C 30.22 in /  1023.2 hPa Calm   1.2 mph /  1.9 km/h 77 % 0.00 in /  0 mm
23:46 62.2 °F /  16.8 °C 54.9 °F /  12.7 °C 30.22 in /  1023.2 hPa Calm     77 % 0.00 in /  0 mm
23:51 62.2 °F /  16.8 °C 54.9 °F /  12.7 °C 30.23 in /  1023.6 hPa Calm     77 % 0.00 in /  0 mm
23:56 62.2 °F /  16.8 °C 55.3 °F /  12.9 °C 30.23 in /  1023.6 hPa Calm     78 % 0.00 in /  0 mm
Crab Meadow Weather
Compliments of Weather Underground - 3 mb

Script developed by  Jim McMurry - jmcmurry@mwt.net Adapted for the template by  Wim van der Kuil - Leuven-Template.eu

Weather Terms: Degree Day - Gauges the amount of heating or cooling needed for a building using 65 degrees as a baseline. To compute degree days, the average temperature for a day is taken and referenced to 65. An average temperature of 50 yields 15 heating degree days, while an average temperature of 75 would yield 10 cooling degree days.